Buhl, ID (83316)

7:33 PM MST on February 22, 2017 (GMT -0700)
KIDBUHL3 | | Change Station
Active Advisory: Winter Weather Advisory

Elev 3660 ft 42.62 °N, 114.75 °W | Updated 12 seconds ago

Snow
Snow
30.9 °F
Feels Like 31 °F
N
2.7
Wind Variable Wind from SSW

Today
High -- | Low -- °F
--% Chance of Precip.
Yesterday
High -- | Low -- °F
Precip. -- in
Pressure 29.82 in
Visibility 9.0 miles
Clouds Few 1300 ft
Mostly Cloudy 3200 ft
Overcast 3900 ft
Windchill 31 °F
Dew Point 29 °F
Humidity 94%
Rainfall 0.00 in
Snow Depth Not available.
7:25 AM 6:20 PM
Waning Crescent, 13% visible
METAR KTWF 230151Z 22013KT 9SM FEW013 BKN032 OVC039 M01/M03 A2979 RMK AO2 WSHFT 0131 SNB0054E50 SLP096 P0001 T10111028
Pressure 29.82 in
Visibility 9.0 miles
Clouds Few 1300 ft
Mostly Cloudy 3200 ft
Overcast 3900 ft
Windchill 31 °F
Dew Point 29 °F
Humidity 94%
Rainfall 0.00 in
Snow Depth Not available.
7:25 AM 6:20 PM
Waning Crescent, 13% visible
METAR KTWF 230151Z 22013KT 9SM FEW013 BKN032 OVC039 M01/M03 A2979 RMK AO2 WSHFT 0131 SNB0054E50 SLP096 P0001 T10111028

Get Your Daily Forecast Email!

Thanks for signing up!

Be on the lookout for a verification email in your inbox.

You'll start receiving the daily forecast at 8 AM.

×

10-Day Weather Forecast

Almanac

Astronomy

Feb. 22, 2017 Rise Set
Actual Time
Civil Twilight
Nautical Twilight
Astronomical Twilight
Moon
Length of Visible Light
Length of Day
Tomorrow will be .
, % of the Moon is Illuminated

Today's Extremes

State Highs State Lows

Community

WunderPhotos

Upload Photos

1,962,540 photos uploaded!

WunderBlog® & News

Nearby

Air Quality

  Air Quality AQ Index Pollutant
Not available.

Snow Depth

Station Depth Elevation

Earthquake Activity

City Distance Mag. Time & Date
Minimum magnitude displayed is 2.5.

Coastal Water Temperatures

Place Temperature

Stations

Nearby Weather Stations

Station Location Temp. Windchill Dew Point Humidity Wind Precip. Elev Updated Type
                   

Watches & Warnings

Winter Weather Advisory
Issued: 3:05 PM MST Feb. 22, 2017 – National Weather Service

... Winter Weather Advisory now in effect until 11 PM MST
Thursday...

* snow amounts... 2 to 6 inches. Elevations above 5000 feet will
see 4 to 10 inches.

* Snow levels... snow will reach the ground in all areas. However,
temperatures above freezing (at elevations below 5000 feet)
today will limit accumulations at lower elevations.

* Winds... north 5 to 15 mph today, becoming northwest and
increasing to 10 to 20 mph tonight.

* Timing... heaviest snow will fall through tonight.

* Impacts... snow will result in dangerous driving conditions,
and winds will blow snow back onto roads even after they are
plowed.

Precautionary/preparedness actions...

A Winter Weather Advisory for snow means that periods of snow
will primarily cause travel difficulties. Be prepared for snow
covered roads and limited visibilities... and use caution while
driving.